Time;durP1;ratioP1;P1;durP2;ratioP2;P2;SDS_P1;SDS_P2;PMS_P1;PMS_P2;Temp;Humidity;BMP_temperature;BMP_pressure;BME280_temperature;BME280_humidity;BME280_pressure;Samples;Min_cycle;Max_cycle;Signal;HPM_P1;HPM_P2
2021/06/08 00:06:24;;;;;;;0.10;0.10;;;;;;;14.89;80.96;101647.47;5049287;28;20063;-87
2021/06/08 00:09:19;;;;;;;0.10;0.10;;;;;;;15.07;81.37;101690.63;5052199;28;20049;-87
2021/06/08 00:11:47;;;;;;;0.20;0.20;;;;;;;14.79;81.43;101634.66;5035516;28;20049;-89
2021/06/08 00:14:16;;;;;;;0.20;0.20;;;;;;;14.81;81.36;101650.81;5047529;28;20400;-88
2021/06/08 00:16:54;;;;;;;0.20;0.20;;;;;;;14.86;81.88;101672.69;5042350;28;20647;-88
2021/06/08 00:23:53;;;;;;;0.20;0.20;;;;;;;14.86;81.42;101681.75;5039575;28;20064;-88
2021/06/08 00:27:12;;;;;;;0.17;0.17;;;;;;;14.76;81.91;101679.91;5080773;28;20053;-88
2021/06/08 00:30:43;;;;;;;0.20;0.20;;;;;;;14.81;81.37;101679.03;5064724;28;20424;-88
2021/06/08 00:33:14;;;;;;;0.20;0.20;;;;;;;14.65;81.38;101656.38;5032098;28;20045;-88
2021/06/08 00:35:55;;;;;;;0.20;0.20;;;;;;;14.67;81.95;101672.56;5042539;28;20045;-88
2021/06/08 00:38:48;;;;;;;0.13;0.13;;;;;;;14.74;81.68;101684.00;5033070;28;20049;-89
2021/06/08 00:41:33;;;;;;;0.20;0.20;;;;;;;14.65;81.32;101666.53;5036417;28;20044;-87
2021/06/08 00:44:33;;;;;;;0.22;0.20;;;;;;;14.70;81.83;101677.47;5056270;28;20044;-88
2021/06/08 00:47:11;;;;;;;0.10;0.10;;;;;;;14.53;81.65;101648.50;5055059;28;20524;-88
2021/06/08 00:49:42;;;;;;;0.20;0.20;;;;;;;14.39;81.51;101631.03;5059858;28;20054;-88
2021/06/08 00:52:27;;;;;;;0.20;0.20;;;;;;;14.70;81.73;101686.50;5064705;28;20056;-88
2021/06/08 00:55:21;;;;;;;0.10;0.10;;;;;;;14.66;81.43;101681.88;5056536;28;20045;-87
2021/06/08 00:57:56;;;;;;;0.30;0.20;;;;;;;14.67;81.28;101672.56;5042462;28;20049;-88
2021/06/08 01:00:54;;;;;;;0.10;0.10;;;;;;;14.64;81.11;101679.41;5047038;28;20064;-88
2021/06/08 01:03:26;;;;;;;0.10;0.10;;;;;;;14.48;82.27;101662.22;5035380;28;20497;-88
2021/06/08 01:09:58;;;;;;;0.10;0.10;;;;;;;14.21;82.01;101618.78;5050458;28;20049;-88
2021/06/08 01:12:31;;;;;;;0.10;0.10;;;;;;;14.45;81.62;101654.56;5049498;28;20045;-88
2021/06/08 01:15:37;;;;;;;0.10;0.10;;;;;;;14.51;81.72;101667.13;5052631;28;20417;-88
2021/06/08 01:18:16;;;;;;;0.10;0.10;;;;;;;14.50;81.34;101667.41;5047569;28;20049;-88
2021/06/08 01:20:50;;;;;;;0.20;0.20;;;;;;;14.47;81.22;101666.03;5036425;28;20049;-88
2021/06/08 01:27:24;;;;;;;0.13;0.13;;;;;;;14.15;82.12;101663.75;5035603;28;20072;-88
2021/06/08 01:38:07;;;;;;;0.20;0.20;;;;;;;14.06;82.12;101644.34;5035661;28;20064;-88
2021/06/08 01:44:41;;;;;;;0.17;0.17;;;;;;;14.22;81.83;101665.06;5035378;28;20049;-86
2021/06/08 01:47:08;;;;;;;0.20;0.20;;;;;;;14.18;81.19;101649.47;5036573;28;20529;-88
2021/06/08 01:49:42;;;;;;;0.20;0.20;;;;;;;14.03;81.66;101628.47;5035698;28;20080;-88
2021/06/08 01:52:41;;;;;;;0.20;0.20;;;;;;;14.23;81.33;101676.84;5035902;28;20057;-88
2021/06/08 01:55:30;;;;;;;0.10;0.10;;;;;;;13.96;81.94;101650.66;5038563;28;20056;-88
2021/06/08 01:58:07;;;;;;;0.15;0.15;;;;;;;13.97;82.73;101676.13;5039530;28;20777;-88
2021/06/08 02:04:44;;;;;;;0.10;0.10;;;;;;;13.91;81.79;101669.84;5062445;28;19939;-87
2021/06/08 02:11:46;;;;;;;0.20;0.20;;;;;;;13.58;82.36;101648.28;5045507;28;20044;-88
2021/06/08 02:14:20;;;;;;;0.13;0.13;;;;;;;13.53;83.69;101636.53;5034704;28;20045;-88
2021/06/08 02:16:52;;;;;;;0.20;0.20;;;;;;;13.81;83.23;101681.63;5036223;28;20045;-89
2021/06/08 02:20:11;;;;;;;0.20;0.20;;;;;;;13.90;83.03;101681.88;5044859;28;20053;-88
2021/06/08 02:22:45;;;;;;;0.10;0.10;;;;;;;13.87;82.41;101664.09;5050268;28;20490;-87
2021/06/08 02:25:33;;;;;;;0.10;0.10;;;;;;;13.98;82.38;101684.03;5050134;28;20049;-87
2021/06/08 02:28:10;;;;;;;0.10;0.10;;;;;;;13.90;82.27;101685.41;5053709;28;20053;-87
2021/06/08 02:31:08;;;;;;;0.20;0.20;;;;;;;13.98;81.83;101694.19;5039651;28;20037;-87
2021/06/08 02:33:38;;;;;;;0.20;0.20;;;;;;;13.85;81.85;101660.00;5035474;28;20049;-88
2021/06/08 02:36:17;;;;;;;0.20;0.20;;;;;;;13.85;82.36;101679.97;5041835;28;20053;-88
2021/06/08 02:39:12;;;;;;;0.20;0.20;;;;;;;13.85;83.11;101690.94;5049865;28;20056;-88
2021/06/08 02:42:01;;;;;;;0.13;0.13;;;;;;;13.76;83.07;101689.84;5054749;28;20048;-89
2021/06/08 02:44:34;;;;;;;0.10;0.10;;;;;;;13.82;82.22;101680.50;5045457;28;20065;-88
2021/06/08 02:47:08;;;;;;;0.20;0.20;;;;;;;13.69;82.58;101670.97;5039439;28;20045;-89
2021/06/08 02:50:34;;;;;;;0.17;0.17;;;;;;;13.83;82.43;101687.63;5034196;28;20050;-88
2021/06/08 02:53:08;;;;;;;0.10;0.10;;;;;;;13.84;81.51;101693.94;5052353;28;20072;-88
2021/06/08 02:56:18;;;;;;;0.10;0.10;;;;;;;13.76;82.49;101692.59;5053023;28;20056;-87
2021/06/08 03:03:15;;;;;;;0.20;0.20;;;;;;;13.63;82.09;101674.84;5041181;28;20056;-88
2021/06/08 03:05:48;;;;;;;0.10;0.10;;;;;;;13.82;82.03;101694.19;5034040;28;20053;-88
2021/06/08 03:08:34;;;;;;;0.70;0.10;;;;;;;13.87;81.68;101698.84;5034072;28;20053;-88
2021/06/08 03:11:06;;;;;;;0.20;0.20;;;;;;;13.65;82.71;101671.81;5042344;28;20049;-89
2021/06/08 03:13:51;;;;;;;0.10;0.10;;;;;;;13.90;81.31;101696.38;5040729;28;20421;-89
2021/06/08 03:16:23;;;;;;;0.10;0.10;;;;;;;13.81;81.48;101684.38;5049634;28;20052;-88
2021/06/08 03:19:12;;;;;;;0.10;0.10;;;;;;;13.80;81.69;101693.66;5057054;28;20060;-88
2021/06/08 03:22:11;;;;;;;0.15;0.15;;;;;;;13.89;81.33;101705.69;5060671;28;20056;-87
2021/06/08 03:24:47;;;;;;;0.13;0.13;;;;;;;13.83;81.43;101690.38;5042992;28;20049;-88
2021/06/08 03:31:46;;;;;;;0.20;0.20;;;;;;;13.83;81.61;101695.03;5057558;28;20056;-88
2021/06/08 03:43:18;;;;;;;0.20;0.20;;;;;;;13.73;82.03;101671.25;5076034;28;20035;-88
2021/06/08 03:53:57;;;;;;;0.20;0.20;;;;;;;13.81;81.66;101662.47;5042292;28;20046;-89
2021/06/08 04:00:56;;;;;;;0.10;0.10;;;;;;;13.86;81.70;101669.84;5059168;28;20040;-89
2021/06/08 04:03:55;;;;;;;0.10;0.10;;;;;;;14.20;81.49;101702.84;5049731;28;20055;-88
2021/06/08 04:06:24;;;;;;;0.15;0.15;;;;;;;14.15;81.53;101693.84;5050798;28;20059;-88
2021/06/08 04:09:23;;;;;;;0.10;0.10;;;;;;;14.21;81.43;101699.03;5072288;28;20401;-87
2021/06/08 04:11:52;;;;;;;0.10;0.10;;;;;;;13.88;81.17;101648.47;5061915;28;20051;-89
2021/06/08 04:14:25;;;;;;;0.10;0.10;;;;;;;14.05;81.93;101659.13;5067561;28;20048;-90
2021/06/08 04:20:45;;;;;;;0.10;0.10;;;;;;;14.37;81.36;101666.09;5034665;28;20059;-88
2021/06/08 04:23:14;;;;;;;0.20;0.20;;;;;;;14.42;80.71;101663.34;5056259;28;20389;-88
2021/06/08 04:25:44;;;;;;;0.17;0.17;;;;;;;14.73;80.93;101702.34;5040353;28;20048;-88
2021/06/08 04:28:19;;;;;;;0.20;0.20;;;;;;;14.38;80.17;101645.84;5060041;28;20044;-88
2021/06/08 04:30:59;;;;;;;0.10;0.10;;;;;;;14.74;80.54;101694.97;5056020;28;20050;-87
2021/06/08 04:33:34;;;;;;;0.20;0.20;;;;;;;14.86;79.67;101681.75;5042454;28;20057;-88
2021/06/08 04:40:59;;;;;;;0.10;0.10;;;;;;;14.69;80.58;101703.22;5047327;28;20048;-88
2021/06/08 04:43:33;;;;;;;0.20;0.20;;;;;;;14.50;80.88;101670.13;5049466;28;20052;-89
2021/06/08 04:46:15;;;;;;;0.20;0.20;;;;;;;14.58;81.27;101684.09;5055681;28;20504;-88
2021/06/08 04:48:50;;;;;;;0.20;0.20;;;;;;;14.73;81.74;101694.13;5051986;28;20055;-87
2021/06/08 04:52:12;;;;;;;0.20;0.20;;;;;;;14.66;81.18;101704.59;5042001;28;20049;-88
2021/06/08 04:59:17;;;;;;;0.20;0.20;;;;;;;15.04;80.84;101701.34;5044539;28;20036;-87
2021/06/08 05:02:14;;;;;;;0.20;0.20;;;;;;;14.98;80.48;101695.06;5050262;28;20076;-88
2021/06/08 05:05:05;;;;;;;0.10;0.10;;;;;;;14.95;80.70;101693.72;5052371;28;20060;-88
2021/06/08 05:08:04;;;;;;;0.15;0.15;;;;;;;15.12;80.61;101698.84;5050034;28;20071;-87
2021/06/08 05:11:11;;;;;;;0.20;0.20;;;;;;;15.12;81.16;101703.47;5061758;28;20062;-89
2021/06/08 05:18:08;;;;;;;0.30;0.20;;;;;;;15.10;81.12;101687.31;5056284;28;20044;-88
2021/06/08 05:25:14;;;;;;;0.10;0.10;;;;;;;15.33;80.08;101706.91;5041968;28;20049;-90
2021/06/08 05:31:49;;;;;;;0.20;0.20;;;;;;;15.39;80.08;101705.75;5044584;28;20421;-88
2021/06/08 05:39:32;;;;;;;0.20;0.20;;;;;;;15.71;80.51;101723.56;5039064;28;20042;-88
2021/06/08 05:42:51;;;;;;;0.15;0.15;;;;;;;15.76;79.72;101719.97;5046982;28;20045;-88
2021/06/08 05:45:49;;;;;;;0.20;0.20;;;;;;;15.82;78.62;101718.81;5043046;28;20060;-89
2021/06/08 05:48:40;;;;;;;0.13;0.13;;;;;;;15.57;79.05;101690.50;5043366;28;20709;-89
2021/06/08 05:51:14;;;;;;;0.20;0.20;;;;;;;15.71;79.15;101718.06;5049509;28;20049;-89
2021/06/08 05:54:08;;;;;;;0.35;0.20;;;;;;;15.89;79.36;101723.97;5041788;28;20049;-88
2021/06/08 05:56:38;;;;;;;0.82;0.20;;;;;;;15.95;79.51;101720.88;5051892;28;20506;-88
2021/06/08 05:59:07;;;;;;;0.20;0.20;;;;;;;15.97;78.89;101729.63;5067330;28;20060;-88
2021/06/08 06:02:06;;;;;;;0.20;0.20;;;;;;;15.95;78.39;101726.38;5036615;28;20049;-88
2021/06/08 06:04:37;;;;;;;0.13;0.13;;;;;;;15.70;78.21;101707.38;5048506;28;20415;-89
2021/06/08 06:08:14;;;;;;;0.20;0.20;;;;;;;15.99;78.44;101729.34;5036313;28;20057;-88
2021/06/08 06:19:42;;;;;;;0.13;0.13;;;;;;;16.23;78.24;101703.84;5053299;28;20044;-88
2021/06/08 06:26:21;;;;;;;0.20;0.20;;;;;;;16.36;77.47;101736.06;5036267;28;20057;-90
2021/06/08 06:29:36;;;;;;;0.17;0.10;;;;;;;16.47;77.22;101734.84;5037400;28;20080;-88
2021/06/08 06:32:30;;;;;;;0.20;0.20;;;;;;;17.10;75.32;101737.59;5044452;28;20052;-88
2021/06/08 06:35:33;;;;;;;0.10;0.10;;;;;;;16.81;75.45;101738.53;5041122;28;20069;-88
2021/06/08 06:38:07;;;;;;;0.20;0.20;;;;;;;16.76;75.94;101714.66;5046374;28;20410;-89
2021/06/08 06:41:11;;;;;;;0.20;0.20;;;;;;;17.03;74.74;101737.13;5051002;28;20049;-89
2021/06/08 06:52:02;;;;;;;0.10;0.10;;;;;;;17.16;74.94;101734.44;5047366;28;20048;-88
2021/06/08 06:54:36;;;;;;;0.22;0.22;;;;;;;17.34;74.80;101740.22;5050556;28;20413;-88
2021/06/08 06:57:42;;;;;;;0.20;0.20;;;;;;;17.42;73.58;101744.25;5041881;28;20049;-91
2021/06/08 07:01:05;;;;;;;0.10;0.10;;;;;;;17.34;73.78;101748.50;5055581;28;20049;-87
2021/06/08 07:03:39;;;;;;;0.17;0.17;;;;;;;17.57;74.13;101732.16;5035075;28;20045;-89
2021/06/08 07:06:10;;;;;;;0.20;0.20;;;;;;;17.51;73.96;101740.50;5042243;28;20042;-87
2021/06/08 07:08:48;;;;;;;0.20;0.20;;;;;;;17.34;73.28;101745.72;5051520;28;20060;-86
2021/06/08 07:11:17;;;;;;;0.10;0.10;;;;;;;17.66;73.84;101750.44;5052634;28;20405;-88
2021/06/08 07:14:04;;;;;;;0.10;0.10;;;;;;;17.61;73.39;101735.94;5058330;28;20045;-86
2021/06/08 07:21:07;;;;;;;1.48;0.20;;;;;;;17.91;72.88;101740.13;5038633;28;20041;-87
2021/06/08 07:23:39;;;;;;;0.10;0.10;;;;;;;17.88;71.37;101754.44;5045570;28;20040;-87
2021/06/08 07:26:18;;;;;;;0.20;0.20;;;;;;;17.94;73.34;101750.53;5048561;28;20052;-86
2021/06/08 07:28:46;;;;;;;0.20;0.20;;;;;;;17.94;73.60;101741.44;5048241;28;20072;-87
2021/06/08 07:31:29;;;;;;;0.13;0.13;;;;;;;18.33;72.86;101751.97;5048659;28;20052;-88
2021/06/08 07:34:11;;;;;;;0.13;0.13;;;;;;;18.40;72.16;101751.56;5049301;28;20433;-87
2021/06/08 07:36:46;;;;;;;0.10;0.10;;;;;;;18.25;71.42;101751.88;5050070;28;20051;-86
2021/06/08 07:39:22;;;;;;;0.20;0.20;;;;;;;18.51;72.01;101733.69;5049861;28;20060;-87
2021/06/08 07:42:06;;;;;;;0.20;0.20;;;;;;;18.63;71.01;101719.38;5041191;28;20063;-86
2021/06/08 07:44:49;;;;;;;0.20;0.20;;;;;;;18.85;70.38;101750.88;5049684;28;20060;-89
2021/06/08 07:47:31;;;;;;;0.10;0.10;;;;;;;19.05;68.95;101729.53;5049593;28;20410;-87
2021/06/08 07:50:31;;;;;;;0.10;0.10;;;;;;;18.90;69.67;101753.56;5050085;28;20055;-86
2021/06/08 07:53:02;;;;;;;0.15;0.15;;;;;;;18.71;69.61;101753.66;5050363;28;20053;-88
2021/06/08 07:56:26;;;;;;;0.15;0.15;;;;;;;18.95;69.45;101750.69;5053581;28;20044;-88
2021/06/08 07:59:22;;;;;;;0.10;0.10;;;;;;;18.69;70.65;101755.94;5053022;28;20071;-86
2021/06/08 08:01:56;;;;;;;0.20;0.20;;;;;;;19.06;68.71;101761.47;5053011;28;20048;-87
2021/06/08 08:04:51;;;;;;;0.20;0.20;;;;;;;18.99;69.11;101765.50;5052816;28;20048;-87
2021/06/08 08:07:49;;;;;;;0.15;0.15;;;;;;;18.91;68.78;101765.44;5049912;28;20048;-87
2021/06/08 08:10:21;;;;;;;0.20;0.20;;;;;;;19.07;67.78;101766.72;5051965;28;20535;-87
2021/06/08 08:12:52;;;;;;;0.20;0.20;;;;;;;19.25;69.89;101766.84;5051567;28;20056;-88
2021/06/08 08:15:49;;;;;;;0.20;0.20;;;;;;;19.08;68.55;101767.50;5052439;28;20049;-87
2021/06/08 08:18:18;;;;;;;0.20;0.20;;;;;;;19.48;66.43;101767.66;5048023;28;20063;-87
2021/06/08 08:20:56;;;;;;;0.10;0.10;;;;;;;19.47;67.86;101768.78;5052953;28;20683;-87
2021/06/08 08:23:48;;;;;;;0.20;0.20;;;;;;;19.78;66.88;101754.22;5050897;28;20839;-87
2021/06/08 08:26:17;;;;;;;0.20;0.20;;;;;;;19.98;66.22;101756.47;5052534;28;20401;-89
2021/06/08 08:28:51;;;;;;;0.20;0.20;;;;;;;19.81;66.20;101750.84;5050595;28;20391;-89
2021/06/08 08:31:44;;;;;;;0.10;0.10;;;;;;;19.81;64.03;101759.94;5050079;28;20508;-87
2021/06/08 08:34:16;;;;;;;0.20;0.20;;;;;;;19.82;65.45;101752.47;5052843;28;20132;-88
2021/06/08 08:36:45;;;;;;;0.10;0.10;;;;;;;19.64;66.51;101735.78;5053373;28;20053;-89
2021/06/08 08:39:22;;;;;;;0.17;0.17;;;;;;;19.52;64.62;101758.44;5052294;28;20049;-87
2021/06/08 08:41:59;;;;;;;;;;;;;;;19.69;64.66;101763.25;5050848;28;20044;-88
2021/06/08 08:44:29;;;;;;;0.10;0.10;;;;;;;19.75;65.93;101763.09;5050076;28;19929;-87
2021/06/08 08:47:02;;;;;;;0.20;0.20;;;;;;;19.61;64.69;101761.25;5048313;28;20061;-89
2021/06/08 08:49:35;;;;;;;0.10;0.10;;;;;;;19.75;67.06;101754.81;5048301;28;20056;-88
2021/06/08 08:52:13;;;;;;;0.20;0.20;;;;;;;19.59;64.98;101762.72;5048206;28;21269;-87
2021/06/08 08:58:31;;;;;;;0.20;0.20;;;;;;;19.98;64.67;101756.47;5051130;28;20053;-89
2021/06/08 09:01:14;;;;;;;0.15;0.15;;;;;;;20.14;62.99;101754.09;5049310;28;20107;-87
2021/06/08 09:04:17;;;;;;;0.20;0.20;;;;;;;20.49;61.97;101753.38;5053619;28;20049;-89
2021/06/08 09:06:52;;;;;;;0.10;0.10;;;;;;;20.67;63.87;101752.31;5050194;28;20053;-89
2021/06/08 09:09:30;;;;;;;0.20;0.20;;;;;;;20.60;62.99;101760.22;5052703;28;20552;-88
2021/06/08 09:12:04;;;;;;;0.20;0.20;;;;;;;20.53;61.25;101752.41;5047539;28;20061;-88
2021/06/08 09:14:39;;;;;;;0.20;0.20;;;;;;;20.43;61.39;101740.84;5049313;28;20072;-88
2021/06/08 09:17:16;;;;;;;0.15;0.15;;;;;;;20.49;61.45;101745.09;5050197;28;20052;-89
2021/06/08 09:19:51;;;;;;;;;;;;;;;20.73;62.14;101753.00;5048050;28;20044;-89
2021/06/08 09:22:51;;;;;;;0.20;0.20;;;;;;;20.73;63.72;101753.00;5040366;28;19928;-89
2021/06/08 09:25:44;;;;;;;0.10;0.10;;;;;;;20.60;59.76;101753.91;5047425;28;20059;-89
2021/06/08 09:28:22;;;;;;;0.10;0.10;;;;;;;20.73;59.71;101758.53;5047601;28;20876;-88
2021/06/08 09:31:00;;;;;;;0.10;0.10;;;;;;;20.64;62.02;101757.66;5047700;28;20052;-88
2021/06/08 09:33:35;;;;;;;0.10;0.10;;;;;;;20.53;59.80;101760.69;5050351;28;20060;-87
2021/06/08 09:36:20;;;;;;;0.10;0.10;;;;;;;20.12;60.30;101759.13;5051538;28;20064;-86
2021/06/08 09:38:59;;;;;;;0.20;0.20;;;;;;;20.35;59.61;101761.81;5054281;28;20092;-88
2021/06/08 09:41:32;;;;;;;0.10;0.10;;;;;;;20.55;62.86;101752.13;5054271;28;20053;-91
2021/06/08 09:44:05;;;;;;;;;;;;;;;20.83;61.90;101755.44;5055429;28;20518;-91
2021/06/08 09:46:44;;;;;;;0.10;0.10;;;;;;;20.60;58.42;101704.91;5055955;28;19935;-88
2021/06/08 09:49:21;;;;;;;0.20;0.20;;;;;;;20.27;61.84;101732.19;5054982;28;20056;-88
2021/06/08 09:51:57;;;;;;;0.10;0.10;;;;;;;20.92;62.00;101755.44;5053567;28;20068;-89
2021/06/08 09:54:34;;;;;;;0.10;0.10;;;;;;;20.66;60.44;101747.06;5050488;28;20060;-89
2021/06/08 09:57:16;;;;;;;0.10;0.10;;;;;;;20.63;57.83;101739.41;5050758;28;20064;-89
2021/06/08 10:00:19;;;;;;;0.10;0.10;;;;;;;20.41;60.55;101745.88;5054667;28;20425;-88
2021/06/08 10:02:53;;;;;;;0.20;0.20;;;;;;;20.19;58.97;101751.19;5053968;28;20400;-89
2021/06/08 10:05:24;;;;;;;0.10;0.10;;;;;;;20.24;57.87;101747.44;5066065;28;20068;-88
2021/06/08 10:08:07;;;;;;;0.10;0.10;;;;;;;20.20;59.10;101716.91;5045413;28;20053;-89
2021/06/08 10:10:37;;;;;;;0.10;0.10;;;;;;;20.23;58.92;101737.53;5045566;28;20496;-90
2021/06/08 10:13:15;;;;;;;0.10;0.10;;;;;;;20.47;55.23;101752.91;5042826;28;20057;-88
2021/06/08 10:16:29;;;;;;;0.10;0.10;;;;;;;20.49;59.42;101742.31;5045968;28;20040;-89
2021/06/08 10:19:01;;;;;;;0.20;0.20;;;;;;;20.80;59.86;101739.47;5052634;28;20059;-89
2021/06/08 10:21:40;;;;;;;0.17;0.17;;;;;;;21.16;58.48;101745.84;5047055;28;20057;-88
2021/06/08 10:24:18;;;;;;;0.20;0.20;;;;;;;20.84;55.03;101739.63;5020991;28;20063;-89
2021/06/08 10:26:57;;;;;;;0.32;0.20;;;;;;;20.72;56.28;101751.34;5050229;28;20060;-88
2021/06/08 10:29:35;;;;;;;0.17;0.17;;;;;;;20.94;56.90;101753.16;5044887;28;20684;-89
2021/06/08 10:32:07;;;;;;;0.20;0.20;;;;;;;20.99;58.27;101749.41;5062110;28;20060;-88
2021/06/08 10:34:52;;;;;;;0.20;0.20;;;;;;;20.75;55.32;101730.53;5048759;28;20057;-87
2021/06/08 10:37:25;;;;;;;0.10;0.10;;;;;;;21.21;55.54;101748.44;5048224;28;20056;-89
2021/06/08 10:40:00;;;;;;;0.20;0.20;;;;;;;21.20;57.77;101749.59;5047466;28;20068;-89
2021/06/08 10:42:36;;;;;;;0.10;0.10;;;;;;;20.93;55.94;101746.00;5028725;28;20063;-90
2021/06/08 10:45:08;;;;;;;0.20;0.20;;;;;;;20.89;56.24;101737.56;5045543;28;20060;-88
2021/06/08 10:47:55;;;;;;;0.20;0.20;;;;;;;21.12;56.97;101744.88;5048328;28;20660;-89
2021/06/08 10:50:28;;;;;;;0.10;0.10;;;;;;;21.31;59.26;101727.91;5048583;28;20060;-88
2021/06/08 10:53:06;;;;;;;0.10;0.10;;;;;;;21.63;58.23;101728.56;5046592;28;20057;-89
2021/06/08 10:55:44;;;;;;;0.20;0.20;;;;;;;21.72;55.18;101732.91;5047006;28;21017;-88
2021/06/08 10:58:45;;;;;;;0.10;0.10;;;;;;;21.76;56.30;101733.06;5046885;28;20424;-89
2021/06/08 11:01:44;;;;;;;0.10;0.10;;;;;;;21.92;58.98;101734.13;5049503;28;20060;-90
2021/06/08 11:04:24;;;;;;;0.10;0.10;;;;;;;21.95;54.83;101734.63;5045101;28;20061;-89
2021/06/08 11:06:59;;;;;;;0.20;0.20;;;;;;;22.31;57.36;101716.69;5051644;28;20061;-90
2021/06/08 11:09:34;;;;;;;0.15;0.15;;;;;;;22.82;57.07;101730.59;5046823;28;20056;-89
2021/06/08 11:12:24;;;;;;;0.20;0.20;;;;;;;22.12;50.81;101734.53;5046927;28;20059;-89
2021/06/08 11:14:59;;;;;;;0.10;0.10;;;;;;;22.42;53.28;101727.06;5044668;28;20064;-88
2021/06/08 11:17:41;;;;;;;0.20;0.10;;;;;;;21.66;54.27;101722.34;5044770;28;20598;-88
2021/06/08 11:20:22;;;;;;;0.10;0.10;;;;;;;21.67;56.52;101735.88;5049517;28;20064;-90
2021/06/08 11:22:58;;;;;;;0.13;0.10;;;;;;;21.73;56.75;101731.75;5048713;28;20053;-88
2021/06/08 11:25:42;;;;;;;0.10;0.10;;;;;;;21.69;55.22;101730.00;5020493;28;20061;-88
2021/06/08 11:28:16;;;;;;;0.10;0.10;;;;;;;21.74;54.18;101715.97;5050835;28;20049;-89
2021/06/08 11:30:56;;;;;;;0.13;0.13;;;;;;;22.12;53.20;101725.44;5045449;28;20052;-90
2021/06/08 11:33:35;;;;;;;0.10;0.10;;;;;;;21.84;52.92;101731.41;5045008;28;20083;-90
2021/06/08 11:36:33;;;;;;;0.10;0.10;;;;;;;21.72;54.39;101730.16;5043183;28;20419;-88
2021/06/08 11:39:27;;;;;;;0.10;0.10;;;;;;;21.70;52.32;101721.34;5043368;28;20417;-87
2021/06/08 11:42:07;;;;;;;0.10;0.10;;;;;;;21.78;51.77;101716.94;5050834;28;20040;-89
2021/06/08 11:44:35;;;;;;;0.20;0.20;;;;;;;21.47;52.43;101717.94;5046328;28;20071;-91
2021/06/08 11:47:14;;;;;;;0.22;0.13;;;;;;;21.98;54.76;101714.56;5047329;28;20060;-88
2021/06/08 11:49:58;;;;;;;0.20;0.20;;;;;;;21.90;51.21;101713.44;5046352;28;20052;-88
2021/06/08 11:52:33;;;;;;;0.10;0.10;;;;;;;21.63;53.75;101703.63;5046842;28;20056;-89
2021/06/08 11:55:22;;;;;;;0.10;0.10;;;;;;;21.99;54.97;101718.97;5049062;28;20519;-88
2021/06/08 11:58:30;;;;;;;0.10;0.10;;;;;;;22.13;55.01;101721.50;5046368;28;20055;-90
2021/06/08 12:01:06;;;;;;;0.10;0.10;;;;;;;22.36;51.54;101725.66;5045522;28;20421;-88
2021/06/08 12:03:36;;;;;;;0.20;0.20;;;;;;;22.36;54.07;101736.75;5048603;28;20052;-88
2021/06/08 12:06:09;;;;;;;0.10;0.10;;;;;;;22.67;54.83;101724.47;5047176;28;20060;-89
2021/06/08 12:08:42;;;;;;;0.10;0.10;;;;;;;22.24;50.99;101723.56;5042788;28;20061;-89
2021/06/08 12:11:18;;;;;;;0.10;0.10;;;;;;;21.70;51.41;101724.13;5043077;28;20068;-88
2021/06/08 12:13:50;;;;;;;0.25;0.20;;;;;;;21.62;55.15;101724.16;5045492;28;20056;-89
2021/06/08 12:16:30;;;;;;;0.10;0.10;;;;;;;21.57;54.34;101725.13;5046322;28;20049;-90
2021/06/08 12:19:08;;;;;;;0.10;0.10;;;;;;;21.80;53.33;101720.16;5041547;28;20115;-88
2021/06/08 12:21:44;;;;;;;0.10;0.10;;;;;;;21.37;50.60;101683.09;5048350;28;20493;-87
2021/06/08 12:24:19;;;;;;;0.17;0.17;;;;;;;22.07;52.52;101713.38;5019193;28;20056;-89
2021/06/08 12:27:08;;;;;;;0.10;0.10;;;;;;;22.25;51.39;101708.56;5045392;28;20049;-89
2021/06/08 12:29:51;;;;;;;0.10;0.10;;;;;;;22.66;50.13;101702.63;5040842;28;20570;-88
2021/06/08 12:32:19;;;;;;;0.10;0.10;;;;;;;22.47;49.40;101709.44;5045548;28;20060;-90
2021/06/08 12:34:54;;;;;;;0.10;0.10;;;;;;;22.54;48.01;101704.16;5042967;28;20059;-88
2021/06/08 12:37:34;;;;;;;0.20;0.20;;;;;;;22.30;47.76;101710.31;5046860;28;20052;-87
2021/06/08 12:40:08;;;;;;;0.20;0.20;;;;;;;22.47;50.21;101706.66;5042577;28;20057;-90
2021/06/08 12:42:44;;;;;;;0.15;0.10;;;;;;;22.30;48.10;101699.22;5044873;28;20048;-89
2021/06/08 12:45:21;;;;;;;0.10;0.10;;;;;;;22.08;47.70;101694.78;5035057;28;20053;-89
2021/06/08 12:47:56;;;;;;;0.10;0.10;;;;;;;21.78;45.97;101688.38;5042151;28;20045;-90
2021/06/08 12:50:34;;;;;;;0.10;0.10;;;;;;;21.97;46.89;101707.38;5041951;28;20045;-87
2021/06/08 12:53:08;;;;;;;0.10;0.10;;;;;;;21.82;46.75;101686.59;5041968;28;20053;-88
2021/06/08 12:56:10;;;;;;;0.20;0.20;;;;;;;21.69;43.18;101700.31;5044519;28;20388;-89
2021/06/08 12:58:45;;;;;;;0.20;0.20;;;;;;;21.50;45.18;101695.16;5046299;28;20052;-88
2021/06/08 13:01:19;;;;;;;0.10;0.10;;;;;;;21.23;45.52;101693.56;5046065;28;20049;-88
2021/06/08 13:04:00;;;;;;;0.10;0.10;;;;;;;20.96;45.05;101708.56;5044287;28;20065;-89
2021/06/08 13:07:00;;;;;;;0.10;0.10;;;;;;;21.32;44.34;101696.31;5049256;28;20053;-90
2021/06/08 13:09:33;;;;;;;0.10;0.10;;;;;;;21.56;43.39;101693.03;5042512;28;20060;-89
2021/06/08 13:12:09;;;;;;;0.10;0.10;;;;;;;21.57;43.16;101655.88;5048145;28;20424;-90
2021/06/08 13:14:46;;;;;;;0.10;0.10;;;;;;;21.64;42.30;101685.84;5046210;28;20048;-89
2021/06/08 13:17:22;;;;;;;0.10;0.10;;;;;;;21.94;41.44;101685.88;5047711;28;20126;-89
2021/06/08 13:19:59;;;;;;;0.10;0.10;;;;;;;22.03;40.90;101689.44;5045318;28;20048;-88
2021/06/08 13:22:37;;;;;;;0.13;0.13;;;;;;;21.92;40.54;101677.91;5038578;28;20065;-88
2021/06/08 13:25:12;;;;;;;0.10;0.10;;;;;;;21.81;40.32;101684.97;5016804;28;20057;-89
2021/06/08 13:28:08;;;;;;;0.10;0.10;;;;;;;21.89;37.71;101693.25;5044679;28;20416;-90
2021/06/08 13:30:38;;;;;;;0.10;0.10;;;;;;;22.14;38.16;101682.38;5047700;28;20052;-89
2021/06/08 13:33:24;;;;;;;0.25;0.10;;;;;;;21.92;38.88;101689.00;5040887;28;20059;-89
2021/06/08 13:35:58;;;;;;;0.35;0.10;;;;;;;22.03;39.37;101679.16;5041565;28;20083;-88
2021/06/08 13:38:35;;;;;;;0.10;0.10;;;;;;;22.35;40.08;101678.84;5036350;28;20770;-89
2021/06/08 13:41:08;;;;;;;0.20;0.20;;;;;;;22.45;38.86;101677.63;5041695;28;20057;-88
2021/06/08 13:43:43;;;;;;;0.10;0.10;;;;;;;22.66;42.05;101678.47;5039965;28;20071;-89
2021/06/08 13:46:18;;;;;;;0.10;0.10;;;;;;;22.69;39.73;101675.00;5036485;28;20685;-89
2021/06/08 13:48:54;;;;;;;0.10;0.10;;;;;;;22.40;37.54;101679.47;5042896;28;20063;-88
2021/06/08 13:51:31;;;;;;;0.10;0.10;;;;;;;22.20;39.05;101686.56;5040271;28;20059;-89
2021/06/08 13:54:34;;;;;;;0.10;0.10;;;;;;;22.16;37.95;101677.28;5044677;28;20060;-89
2021/06/08 13:57:17;;;;;;;0.10;0.10;;;;;;;22.04;38.07;101680.78;5039719;28;20044;-89
2021/06/08 14:02:46;;;;;;;0.10;0.10;;;;;;;22.39;40.36;101677.84;5029356;28;20075;-88
2021/06/08 14:05:31;;;;;;;0.20;0.20;;;;;;;22.54;40.48;101675.63;5039493;28;20053;-88
2021/06/08 14:08:13;;;;;;;0.10;0.10;;;;;;;22.42;37.30;101671.59;5038203;28;20057;-87
2021/06/08 14:10:52;;;;;;;0.10;0.10;;;;;;;22.58;41.08;101665.47;5043875;28;20048;-88
2021/06/08 14:13:27;;;;;;;0.10;0.10;;;;;;;22.45;36.43;101663.78;5041785;28;20056;-87
2021/06/08 14:16:05;;;;;;;0.10;0.10;;;;;;;22.18;37.45;101663.91;5041748;28;20053;-87
2021/06/08 14:19:06;;;;;;;0.20;0.20;;;;;;;21.93;38.45;101660.16;5044570;28;20056;-88
2021/06/08 14:21:41;;;;;;;0.10;0.10;;;;;;;22.15;38.07;101656.28;5042108;28;20064;-88
2021/06/08 14:24:42;;;;;;;0.13;0.13;;;;;;;22.33;40.74;101656.16;5022267;28;20060;-87
2021/06/08 14:27:13;;;;;;;0.10;0.10;;;;;;;22.10;35.90;101653.69;5052196;28;20060;-88
2021/06/08 14:29:42;;;;;;;0.10;0.10;;;;;;;22.42;39.21;101652.19;5046983;28;20056;-89
2021/06/08 14:32:16;;;;;;;0.13;0.13;;;;;;;22.56;39.91;101654.69;5045955;28;20057;-88
2021/06/08 14:35:16;;;;;;;0.10;0.10;;;;;;;22.65;41.32;101651.03;5044903;28;20057;-88
2021/06/08 14:37:48;;;;;;;0.10;0.10;;;;;;;22.70;41.80;101631.41;5050996;28;20056;-88
2021/06/08 14:40:22;;;;;;;0.30;0.10;;;;;;;22.14;37.42;101649.09;5042831;28;20064;-88
2021/06/08 14:42:57;;;;;;;0.10;0.10;;;;;;;22.03;37.10;101647.88;5041913;28;20053;-88
2021/06/08 14:45:31;;;;;;;0.10;0.10;;;;;;;22.31;37.03;101639.84;5046409;28;20048;-87